createdAt,value
2023-01-15T00:04:26.590Z,0.60
2023-01-15T00:09:29.389Z,0.68
2023-01-15T00:14:33.979Z,0.73
2023-01-15T00:19:36.874Z,0.73
2023-01-15T00:24:53.618Z,0.75
2023-01-15T00:29:57.883Z,1.70
2023-01-15T00:35:00.711Z,0.88
2023-01-15T00:40:04.180Z,0.70
2023-01-15T00:45:11.222Z,1.30
2023-01-15T00:50:16.261Z,1.00
2023-01-15T00:55:19.077Z,1.00
2023-01-15T01:00:23.574Z,0.95
2023-01-15T01:05:26.404Z,0.60
2023-01-15T01:10:29.349Z,1.00
2023-01-15T01:15:36.023Z,0.70
2023-01-15T01:20:39.245Z,0.70
2023-01-15T01:25:42.022Z,0.90
2023-01-15T01:30:46.333Z,0.60
2023-01-15T01:35:49.918Z,0.90
2023-01-15T01:40:52.675Z,0.90
2023-01-15T01:45:57.718Z,1.52
2023-01-15T01:51:05.939Z,0.90
2023-01-15T01:56:09.881Z,1.30
2023-01-15T02:01:15.507Z,1.05
2023-01-15T02:06:18.931Z,1.50
2023-01-15T02:11:24.412Z,1.00
2023-01-15T02:16:36.585Z,1.17
2023-01-15T02:21:51.782Z,1.30
2023-01-15T02:27:13.180Z,1.48
2023-01-15T02:32:24.961Z,1.40
2023-01-15T02:37:31.265Z,1.00
2023-01-15T02:42:38.420Z,0.88
2023-01-15T02:47:44.823Z,0.83
2023-01-15T02:52:53.055Z,1.00
2023-01-15T02:58:04.263Z,1.42
2023-01-15T03:03:14.241Z,1.50
2023-01-15T03:08:17.155Z,1.30
2023-01-15T03:13:30.180Z,1.50
2023-01-15T03:18:38.325Z,1.10
2023-01-15T03:23:48.576Z,1.30
2023-01-15T03:28:53.888Z,1.40
2023-01-15T03:33:56.868Z,1.60
2023-01-15T03:39:00.982Z,1.40
2023-01-15T03:44:30.050Z,1.33
2023-01-15T03:49:43.589Z,1.35
2023-01-15T03:55:08.841Z,1.30
2023-01-15T04:00:19.913Z,1.10
2023-01-15T04:05:29.620Z,1.60
2023-01-15T04:10:33.477Z,1.40
2023-01-15T04:15:39.967Z,1.30
2023-01-15T04:20:43.092Z,1.17
2023-01-15T04:25:46.710Z,1.50
2023-01-15T04:30:51.344Z,1.50
2023-01-15T04:35:54.139Z,1.30
2023-01-15T04:41:14.433Z,1.40
2023-01-15T04:46:22.138Z,1.30
2023-01-15T04:51:25.119Z,1.38
2023-01-15T04:56:27.971Z,1.73
2023-01-15T05:01:32.314Z,1.40
2023-01-15T05:06:35.565Z,1.50
2023-01-15T05:11:39.451Z,1.48
2023-01-15T05:16:43.690Z,2.15
2023-01-15T05:21:46.734Z,1.13
2023-01-15T05:26:49.829Z,1.60
2023-01-15T05:31:54.119Z,1.60
2023-01-15T05:36:57.159Z,1.48
2023-01-15T05:42:02.487Z,1.30
2023-01-15T05:47:07.753Z,1.40
2023-01-15T05:52:10.572Z,2.67
2023-01-15T05:57:14.146Z,1.67
2023-01-15T06:02:18.404Z,1.92
2023-01-15T06:07:21.329Z,1.90
2023-01-15T06:12:24.192Z,2.00
2023-01-15T06:17:28.433Z,1.67
2023-01-15T06:22:31.275Z,1.70
2023-01-15T06:27:34.237Z,1.75
2023-01-15T06:32:38.491Z,1.80
2023-01-15T06:37:41.417Z,1.67
2023-01-15T06:43:02.014Z,1.63
2023-01-15T06:48:07.917Z,1.50
2023-01-15T06:53:10.779Z,1.40
2023-01-15T06:58:13.702Z,1.77
2023-01-15T07:03:18.029Z,1.60
2023-01-15T07:08:20.762Z,1.40
2023-01-15T07:13:23.555Z,1.92
2023-01-15T07:18:27.984Z,1.50
2023-01-15T07:23:30.788Z,1.33
2023-01-15T07:28:33.678Z,1.25
2023-01-15T07:33:37.896Z,2.28
2023-01-15T07:38:40.669Z,3.03
2023-01-15T07:44:12.795Z,1.95
2023-01-15T07:49:34.570Z,1.77
2023-01-15T07:54:37.697Z,2.63
2023-01-15T07:59:40.691Z,2.40
2023-01-15T08:04:47.943Z,1.70
2023-01-15T08:09:50.744Z,2.03
2023-01-15T08:15:10.733Z,2.00
2023-01-15T08:20:17.226Z,1.75
2023-01-15T08:25:22.671Z,1.90
2023-01-15T08:30:26.491Z,2.78
2023-01-15T08:35:30.905Z,1.80
2023-01-15T08:40:33.799Z,1.77
2023-01-15T08:45:36.638Z,1.80
2023-01-15T08:50:40.846Z,1.90
2023-01-15T08:55:44.824Z,1.75
2023-01-15T09:00:48.579Z,1.80
2023-01-15T09:05:52.915Z,1.85
2023-01-15T09:10:58.968Z,2.13
2023-01-15T09:16:03.232Z,1.38
2023-01-15T09:21:07.738Z,2.08
2023-01-15T09:26:27.533Z,1.58
2023-01-15T09:31:31.311Z,1.63
2023-01-15T09:36:36.499Z,1.50
2023-01-15T09:42:08.130Z,1.67
2023-01-15T09:47:15.650Z,1.55
2023-01-15T09:52:27.071Z,1.27
2023-01-15T09:57:32.067Z,1.20
2023-01-15T10:02:41.992Z,1.00
2023-01-15T10:07:57.173Z,1.20
2023-01-15T10:13:07.635Z,1.40
2023-01-15T10:18:16.842Z,1.23
2023-01-15T10:23:43.281Z,1.38
2023-01-15T10:29:10.932Z,1.23
2023-01-15T10:35:05.144Z,2.05
2023-01-15T10:40:29.765Z,2.80
2023-01-15T10:45:35.748Z,1.63
2023-01-15T10:50:39.572Z,2.83
2023-01-15T10:55:47.755Z,2.38
2023-01-15T11:00:56.153Z,2.70
2023-01-15T11:05:58.958Z,1.50
2023-01-15T11:11:17.210Z,1.95
2023-01-15T11:16:39.586Z,1.63
2023-01-15T11:21:44.027Z,1.60
2023-01-15T11:26:51.743Z,1.40
2023-01-15T11:31:54.629Z,2.13
2023-01-15T11:37:04.938Z,1.35
2023-01-15T11:42:43.654Z,1.65
2023-01-15T11:48:10.192Z,1.10
2023-01-15T11:53:18.939Z,0.77
2023-01-15T11:58:24.962Z,0.50
2023-01-15T12:03:32.060Z,0.70
2023-01-15T12:08:50.212Z,0.50
2023-01-15T12:14:04.468Z,0.70
2023-01-15T12:19:13.897Z,0.38
2023-01-15T12:24:31.893Z,0.70
2023-01-15T12:29:43.757Z,0.50
2023-01-15T12:34:52.944Z,1.13
2023-01-15T12:40:03.487Z,1.00
2023-01-15T12:45:16.933Z,1.52
2023-01-15T12:50:30.658Z,1.30
2023-01-15T12:55:38.726Z,1.23
2023-01-15T13:00:45.465Z,1.45
2023-01-15T13:05:51.715Z,1.40
2023-01-15T13:10:54.502Z,1.40
2023-01-15T13:16:09.404Z,1.23
2023-01-15T13:21:14.745Z,1.50
2023-01-15T13:26:33.667Z,1.48
2023-01-15T13:31:51.000Z,1.50
2023-01-15T13:36:56.458Z,1.45
2023-01-15T13:42:18.255Z,1.48
2023-01-15T13:47:26.572Z,1.20
2023-01-15T13:52:32.119Z,1.50
2023-01-15T13:57:37.596Z,1.60
2023-01-15T14:02:53.341Z,1.42
2023-01-15T14:07:56.299Z,1.77
2023-01-15T14:13:30.680Z,1.30
2023-01-15T14:19:01.665Z,1.75
2023-01-15T14:24:37.100Z,1.83
2023-01-15T14:30:07.318Z,1.50
2023-01-15T14:35:15.299Z,1.40
2023-01-15T14:40:24.845Z,2.15
2023-01-15T14:45:30.158Z,2.25
2023-01-15T14:50:39.381Z,2.40
2023-01-15T14:55:48.821Z,1.88
2023-01-15T15:00:55.893Z,2.42
2023-01-15T15:06:01.117Z,3.15
2023-01-15T15:11:27.770Z,1.50
2023-01-15T15:16:32.761Z,2.03
2023-01-15T15:21:40.169Z,1.65
2023-01-15T15:26:43.063Z,1.50
2023-01-15T15:31:49.355Z,2.10
2023-01-15T15:36:53.980Z,1.17
2023-01-15T15:42:17.795Z,1.13
2023-01-15T15:47:40.213Z,1.67
2023-01-15T15:52:46.271Z,2.13
2023-01-15T15:57:54.250Z,1.38
2023-01-15T16:02:57.271Z,2.10
2023-01-15T16:08:18.793Z,2.50
2023-01-15T16:13:26.223Z,1.80
2023-01-15T16:18:32.618Z,5.15
2023-01-15T16:23:36.789Z,2.53
2023-01-15T16:28:44.756Z,5.07
2023-01-15T16:33:48.438Z,3.63
2023-01-15T16:38:54.062Z,3.45
2023-01-15T16:43:59.194Z,2.38
2023-01-15T16:49:21.048Z,1.67
2023-01-15T16:54:47.598Z,1.55
2023-01-15T16:59:57.547Z,1.70
2023-01-15T17:05:00.453Z,1.58
2023-01-15T17:10:07.401Z,1.65
2023-01-15T17:15:36.729Z,1.10
2023-01-15T17:20:39.526Z,1.33
2023-01-15T17:25:43.635Z,1.45
2023-01-15T17:30:48.413Z,2.17
2023-01-15T17:35:53.059Z,1.90
2023-01-15T17:41:00.357Z,2.10
2023-01-15T17:46:03.422Z,1.70
2023-01-15T17:51:10.759Z,2.03
2023-01-15T17:56:32.691Z,2.40
2023-01-15T18:01:57.060Z,2.28
2023-01-15T18:07:01.564Z,2.30
2023-01-15T18:12:07.078Z,2.30
2023-01-15T18:17:11.525Z,2.63
2023-01-15T18:22:15.636Z,2.47
2023-01-15T18:27:19.804Z,3.08
2023-01-15T18:32:22.635Z,3.28
2023-01-15T18:37:25.577Z,2.90
2023-01-15T18:42:49.589Z,4.40
2023-01-15T18:47:52.361Z,2.15
2023-01-15T18:52:55.491Z,2.17
2023-01-15T18:57:59.931Z,2.33
2023-01-15T19:03:03.199Z,2.70
2023-01-15T19:08:06.078Z,2.47
2023-01-15T19:13:10.175Z,2.25
2023-01-15T19:18:30.545Z,2.42
2023-01-15T19:23:33.366Z,2.55
2023-01-15T19:28:37.642Z,2.42
2023-01-15T19:33:40.614Z,2.20
2023-01-15T19:38:43.513Z,2.50
2023-01-15T19:44:05.440Z,3.28
2023-01-15T19:49:33.352Z,3.20
2023-01-15T19:54:58.963Z,2.97
2023-01-15T20:00:03.344Z,2.67
2023-01-15T20:05:09.682Z,2.75
2023-01-15T20:10:14.921Z,2.75
2023-01-15T20:15:19.350Z,3.72
2023-01-15T20:20:22.298Z,3.15
2023-01-15T20:25:26.100Z,2.85
2023-01-15T20:30:30.547Z,2.70
2023-01-15T20:35:33.585Z,2.70
2023-01-15T20:40:36.614Z,2.60
2023-01-15T20:45:41.745Z,2.80
2023-01-15T20:51:00.557Z,2.70
2023-01-15T20:56:05.322Z,2.78
2023-01-15T21:01:11.022Z,2.45
2023-01-15T21:06:14.018Z,2.70
2023-01-15T21:11:18.333Z,2.70
2023-01-15T21:16:23.280Z,2.47
2023-01-15T21:21:26.157Z,2.55
2023-01-15T21:26:30.923Z,2.70
2023-01-15T21:31:35.381Z,3.53
2023-01-15T21:36:38.362Z,2.70
2023-01-15T21:41:59.200Z,2.55
2023-01-15T21:47:05.239Z,3.17
2023-01-15T21:52:10.205Z,2.85
2023-01-15T21:57:13.882Z,2.92
2023-01-15T22:02:21.789Z,2.85
2023-01-15T22:07:24.777Z,2.75
2023-01-15T22:12:27.579Z,2.85
2023-01-15T22:17:31.816Z,2.90
2023-01-15T22:22:36.505Z,2.90
2023-01-15T22:27:40.861Z,2.80
2023-01-15T22:32:45.231Z,3.35
2023-01-15T22:37:48.211Z,3.00
2023-01-15T22:42:50.973Z,2.95
2023-01-15T22:47:55.040Z,2.95
2023-01-15T22:52:57.782Z,3.47
2023-01-15T22:58:00.547Z,2.72
2023-01-15T23:03:05.955Z,3.00
2023-01-15T23:08:08.880Z,2.97
2023-01-15T23:13:11.894Z,3.15
2023-01-15T23:18:16.043Z,3.13
2023-01-15T23:23:18.899Z,3.30
2023-01-15T23:28:21.717Z,3.40
2023-01-15T23:33:25.933Z,3.72
2023-01-15T23:38:29.480Z,4.00
2023-01-15T23:43:49.503Z,3.80
2023-01-15T23:48:53.619Z,4.22
2023-01-15T23:53:56.501Z,4.30
2023-01-15T23:59:00.106Z,4.40
